createdAt,value
2023-05-15T00:02:15.803Z,14.02
2023-05-15T00:05:22.306Z,14.08
2023-05-15T00:08:29.467Z,14.08
2023-05-15T00:11:35.806Z,14.04
2023-05-15T00:14:41.233Z,14.00
2023-05-15T00:17:47.722Z,14.01
2023-05-15T00:20:53.010Z,14.05
2023-05-15T00:24:00.846Z,14.05
2023-05-15T00:27:06.843Z,13.87
2023-05-15T00:30:12.637Z,13.85
2023-05-15T00:33:17.301Z,13.91
2023-05-15T00:36:24.769Z,13.86
2023-05-15T00:39:29.317Z,14.02
2023-05-15T00:42:34.390Z,14.00
2023-05-15T00:45:40.289Z,14.08
2023-05-15T00:48:46.756Z,14.09
2023-05-15T00:51:45.213Z,14.14
2023-05-15T00:54:40.021Z,14.14
2023-05-15T00:57:45.909Z,14.12
2023-05-15T01:00:50.945Z,14.02
2023-05-15T01:03:56.373Z,14.02
2023-05-15T01:07:02.370Z,14.05
2023-05-15T01:10:07.724Z,13.96
2023-05-15T01:13:13.757Z,14.02
2023-05-15T01:16:14.065Z,13.92
2023-05-15T01:19:06.973Z,13.69
2023-05-15T01:22:40.431Z,13.48
2023-05-15T01:26:00.573Z,13.32
2023-05-15T01:29:12.263Z,13.26
2023-05-15T01:32:26.178Z,13.20
2023-05-15T01:36:07.130Z,13.19
2023-05-15T01:39:14.354Z,13.25
2023-05-15T01:42:29.067Z,13.32
2023-05-15T01:45:33.741Z,13.28
2023-05-15T01:48:39.188Z,13.23
2023-05-15T01:51:45.008Z,13.15
2023-05-15T01:54:50.501Z,13.20
2023-05-15T01:57:56.430Z,13.16
2023-05-15T02:01:02.178Z,13.22
2023-05-15T02:04:07.492Z,13.29
2023-05-15T02:07:12.852Z,13.46
2023-05-15T02:10:18.724Z,13.62
2023-05-15T02:13:25.693Z,13.46
2023-05-15T02:16:31.467Z,13.41
2023-05-15T02:19:38.109Z,13.64
2023-05-15T02:22:43.457Z,13.75
2023-05-15T02:26:12.586Z,13.93
2023-05-15T02:29:33.436Z,14.33
2023-05-15T02:33:18.220Z,14.75
2023-05-15T02:36:25.433Z,15.14
2023-05-15T02:39:31.968Z,15.72
2023-05-15T02:42:38.338Z,16.08
2023-05-15T02:45:43.841Z,16.50
2023-05-15T02:48:52.345Z,16.94
2023-05-15T02:51:57.802Z,17.23
2023-05-15T02:55:03.102Z,17.59
2023-05-15T02:58:07.806Z,17.99
2023-05-15T03:01:14.216Z,18.25
2023-05-15T03:04:20.313Z,18.32
2023-05-15T03:07:25.766Z,18.42
2023-05-15T03:10:31.547Z,18.64
2023-05-15T03:13:36.530Z,18.89
2023-05-15T03:16:44.101Z,19.13
2023-05-15T03:19:49.670Z,19.49
2023-05-15T03:22:56.157Z,19.81
2023-05-15T03:26:02.047Z,20.02
2023-05-15T03:29:07.405Z,20.08
2023-05-15T03:32:14.182Z,20.43
2023-05-15T03:35:20.704Z,20.59
2023-05-15T03:38:26.283Z,20.75
2023-05-15T03:41:34.812Z,20.66
2023-05-15T03:44:40.927Z,20.83
2023-05-15T03:47:46.653Z,20.95
2023-05-15T03:50:53.398Z,21.32
2023-05-15T03:54:00.823Z,21.52
2023-05-15T03:57:07.019Z,21.66
2023-05-15T04:00:16.432Z,21.75
2023-05-15T04:03:22.640Z,21.92
2023-05-15T04:06:29.939Z,21.86
2023-05-15T04:09:35.816Z,21.93
2023-05-15T04:12:41.019Z,22.03
2023-05-15T04:15:47.250Z,22.14
2023-05-15T04:18:53.733Z,22.26
2023-05-15T04:21:59.307Z,22.40
2023-05-15T04:25:04.638Z,22.55
2023-05-15T04:28:10.578Z,22.68
2023-05-15T04:31:15.337Z,22.87
2023-05-15T04:34:20.893Z,23.08
2023-05-15T04:37:26.580Z,23.36
2023-05-15T04:40:31.462Z,23.70
2023-05-15T04:43:39.345Z,23.92
2023-05-15T04:46:46.624Z,24.00
2023-05-15T04:49:51.603Z,24.11
2023-05-15T04:52:58.290Z,24.25
2023-05-15T04:56:04.864Z,24.43
2023-05-15T04:59:10.070Z,24.57
2023-05-15T05:02:15.938Z,24.65
2023-05-15T05:05:23.404Z,24.65
2023-05-15T05:08:22.936Z,24.78
2023-05-15T05:11:28.197Z,25.08
2023-05-15T05:14:33.881Z,25.22
2023-05-15T05:17:40.091Z,25.36
2023-05-15T05:20:45.646Z,25.38
2023-05-15T05:23:50.954Z,25.60
2023-05-15T05:27:00.339Z,25.66
2023-05-15T05:30:05.584Z,25.71
2023-05-15T05:33:12.040Z,25.76
2023-05-15T05:36:17.863Z,25.88
2023-05-15T05:39:23.927Z,25.82
2023-05-15T05:42:33.896Z,25.96
2023-05-15T05:45:40.714Z,26.14
2023-05-15T05:48:46.897Z,26.18
2023-05-15T05:51:54.143Z,26.35
2023-05-15T05:54:58.844Z,26.44
2023-05-15T05:58:08.666Z,26.50
2023-05-15T06:01:13.043Z,26.63
2023-05-15T06:04:18.882Z,26.67
2023-05-15T06:07:24.341Z,26.83
2023-05-15T06:10:29.382Z,26.88
2023-05-15T06:13:36.302Z,26.97
2023-05-15T06:16:41.904Z,27.11
2023-05-15T06:19:49.152Z,27.18
2023-05-15T06:22:56.358Z,27.20
2023-05-15T06:26:01.886Z,27.25
2023-05-15T06:29:08.278Z,27.19
2023-05-15T06:32:14.169Z,27.37
2023-05-15T06:35:20.556Z,27.51
2023-05-15T06:38:25.964Z,27.38
2023-05-15T06:41:30.909Z,28.11
2023-05-15T06:44:39.844Z,28.28
2023-05-15T06:47:46.787Z,28.44
2023-05-15T06:50:52.532Z,28.49
2023-05-15T06:53:51.835Z,28.66
2023-05-15T06:56:58.774Z,28.76
2023-05-15T07:00:03.203Z,28.61
2023-05-15T07:03:08.381Z,29.00
2023-05-15T07:06:15.053Z,29.12
2023-05-15T07:09:22.481Z,29.18
2023-05-15T07:12:29.463Z,29.04
2023-05-15T07:15:37.621Z,29.19
2023-05-15T07:18:44.275Z,29.03
2023-05-15T07:21:53.223Z,29.09
2023-05-15T07:24:58.950Z,29.16
2023-05-15T07:28:05.733Z,29.28
2023-05-15T07:31:11.335Z,29.23
2023-05-15T07:34:17.457Z,29.15
2023-05-15T07:37:24.375Z,29.43
2023-05-15T07:40:32.407Z,29.62
2023-05-15T07:43:39.106Z,29.65
2023-05-15T07:46:46.222Z,29.83
2023-05-15T07:49:52.381Z,29.65
2023-05-15T07:52:57.723Z,29.52
2023-05-15T07:55:56.876Z,29.64
2023-05-15T07:59:02.437Z,29.81
2023-05-15T08:02:10.608Z,29.91
2023-05-15T08:05:17.373Z,29.95
2023-05-15T08:08:22.846Z,30.04
2023-05-15T08:11:29.320Z,29.90
2023-05-15T08:14:34.794Z,29.95
2023-05-15T08:17:41.668Z,29.93
2023-05-15T08:20:47.510Z,29.90
2023-05-15T08:23:54.429Z,30.04
2023-05-15T08:26:54.062Z,29.97
2023-05-15T08:29:59.721Z,29.99
2023-05-15T08:33:05.828Z,30.01
2023-05-15T08:36:10.847Z,30.18
2023-05-15T08:39:16.445Z,30.31
2023-05-15T08:42:41.158Z,30.43
2023-05-15T08:45:47.432Z,30.34
2023-05-15T08:48:53.808Z,30.34
2023-05-15T08:51:59.611Z,30.24
2023-05-15T08:55:04.838Z,30.14
2023-05-15T08:58:11.386Z,30.28
2023-05-15T09:01:17.552Z,30.35
2023-05-15T09:04:22.690Z,30.28
2023-05-15T09:07:30.349Z,30.45
2023-05-15T09:10:36.614Z,30.25
2023-05-15T09:13:43.049Z,29.98
2023-05-15T09:16:48.632Z,29.98
2023-05-15T09:19:56.224Z,29.84
2023-05-15T09:23:02.144Z,29.85
2023-05-15T09:26:07.576Z,29.75
2023-05-15T09:29:18.350Z,29.43
2023-05-15T09:32:25.076Z,29.30
2023-05-15T09:35:52.391Z,29.22
2023-05-15T09:38:59.014Z,29.42
2023-05-15T09:42:04.886Z,29.59
2023-05-15T09:45:12.750Z,29.59
2023-05-15T09:48:21.537Z,29.74
2023-05-15T09:51:32.480Z,29.86
2023-05-15T09:54:38.332Z,30.02
2023-05-15T09:57:43.951Z,30.00
2023-05-15T10:00:50.431Z,30.06
2023-05-15T10:03:56.919Z,30.15
2023-05-15T10:07:02.308Z,30.27
2023-05-15T10:10:08.818Z,30.40
2023-05-15T10:13:14.910Z,30.72
2023-05-15T10:16:27.363Z,30.68
2023-05-15T10:19:44.082Z,30.85
2023-05-15T10:22:44.896Z,30.87
2023-05-15T10:25:59.357Z,30.85
2023-05-15T10:29:04.632Z,31.05
2023-05-15T10:32:10.500Z,31.19
2023-05-15T10:35:16.057Z,31.83
2023-05-15T10:38:21.436Z,32.42
2023-05-15T10:41:27.642Z,32.53
2023-05-15T10:44:33.142Z,32.45
2023-05-15T10:47:39.448Z,32.70
2023-05-15T10:50:41.625Z,32.93
2023-05-15T10:53:47.368Z,32.95
2023-05-15T10:56:54.206Z,32.66
2023-05-15T10:59:59.980Z,32.54
2023-05-15T11:03:07.517Z,32.74
2023-05-15T11:06:25.761Z,33.41
2023-05-15T11:09:49.472Z,33.65
2023-05-15T11:13:12.941Z,33.95
2023-05-15T11:16:18.252Z,34.10
2023-05-15T11:19:53.530Z,34.16
2023-05-15T11:22:52.592Z,34.27
2023-05-15T11:25:58.273Z,34.35
2023-05-15T11:29:03.996Z,34.48
2023-05-15T11:32:10.761Z,34.51
2023-05-15T11:35:16.212Z,34.51
2023-05-15T11:38:32.509Z,34.64
2023-05-15T11:41:38.025Z,34.53
2023-05-15T11:44:42.963Z,34.27
2023-05-15T11:47:41.139Z,34.09
2023-05-15T11:50:48.430Z,33.56
2023-05-15T11:53:54.455Z,32.92
2023-05-15T11:57:00.214Z,32.79
2023-05-15T12:00:09.944Z,32.76
2023-05-15T12:03:14.951Z,32.54
2023-05-15T12:06:21.664Z,32.32
2023-05-15T12:09:33.370Z,32.05
2023-05-15T12:12:38.883Z,31.94
2023-05-15T12:15:44.566Z,32.17
2023-05-15T12:18:50.666Z,32.25
2023-05-15T12:22:01.915Z,32.26
2023-05-15T12:25:00.897Z,32.34
2023-05-15T12:28:09.061Z,32.34
2023-05-15T12:31:14.775Z,32.25
2023-05-15T12:34:20.734Z,32.53
2023-05-15T12:37:29.686Z,32.42
2023-05-15T12:40:35.962Z,32.51
2023-05-15T12:43:41.976Z,32.63
2023-05-15T12:46:47.874Z,32.60
2023-05-15T12:49:56.457Z,32.69
2023-05-15T12:53:12.051Z,32.65
2023-05-15T12:56:17.529Z,32.86
2023-05-15T12:59:25.471Z,32.88
2023-05-15T13:02:34.315Z,32.47
2023-05-15T13:05:46.012Z,32.14
2023-05-15T13:08:57.383Z,32.52
2023-05-15T13:12:02.476Z,32.53
2023-05-15T13:15:08.059Z,32.54
2023-05-15T13:18:26.711Z,32.65
2023-05-15T13:21:32.231Z,32.63
2023-05-15T13:24:38.142Z,32.64
2023-05-15T13:27:44.155Z,32.44
2023-05-15T13:30:50.592Z,32.53
2023-05-15T13:33:56.828Z,32.67
2023-05-15T13:37:03.433Z,32.82
2023-05-15T13:40:08.720Z,32.45
2023-05-15T13:43:14.644Z,32.81
2023-05-15T13:46:20.568Z,32.42
2023-05-15T13:49:28.119Z,32.22
2023-05-15T13:52:33.638Z,32.18
2023-05-15T13:55:41.039Z,32.06
2023-05-15T13:58:47.262Z,31.94
2023-05-15T14:01:53.026Z,31.90
2023-05-15T14:04:58.180Z,31.95
2023-05-15T14:08:05.988Z,31.94
2023-05-15T14:11:10.844Z,31.78
2023-05-15T14:14:16.948Z,31.90
2023-05-15T14:17:23.686Z,31.97
2023-05-15T14:20:29.190Z,32.10
2023-05-15T14:23:37.283Z,31.93
2023-05-15T14:26:42.910Z,31.97
2023-05-15T14:29:49.795Z,31.96
2023-05-15T14:32:55.830Z,32.00
2023-05-15T14:36:02.382Z,32.03
2023-05-15T14:39:08.435Z,31.88
2023-05-15T14:42:14.794Z,31.77
2023-05-15T14:45:19.733Z,31.83
2023-05-15T14:48:25.378Z,32.10
2023-05-15T14:51:30.000Z,32.08
2023-05-15T14:54:34.902Z,31.91
2023-05-15T14:57:39.719Z,31.90
2023-05-15T15:00:45.473Z,31.84
2023-05-15T15:03:51.371Z,31.62
2023-05-15T15:06:58.161Z,31.47
2023-05-15T15:10:03.791Z,31.37
2023-05-15T15:13:10.505Z,31.03
2023-05-15T15:16:16.744Z,29.15
2023-05-15T15:19:22.977Z,29.46
2023-05-15T15:22:29.464Z,29.18
2023-05-15T15:25:40.209Z,29.43
2023-05-15T15:32:17.154Z,29.68
2023-05-15T15:35:24.473Z,29.67
2023-05-15T15:38:31.272Z,29.77
2023-05-15T15:41:38.681Z,29.84
2023-05-15T15:44:48.284Z,29.75
2023-05-15T15:48:00.778Z,29.71
2023-05-15T15:51:17.783Z,29.52
2023-05-15T15:54:27.339Z,29.51
2023-05-15T15:57:43.370Z,29.51
2023-05-15T16:01:00.552Z,29.60
2023-05-15T16:04:23.240Z,29.82
2023-05-15T16:07:31.201Z,30.01
2023-05-15T16:10:38.132Z,30.07
2023-05-15T16:13:44.858Z,29.81
2023-05-15T16:16:50.995Z,29.52
2023-05-15T16:19:57.829Z,29.58
2023-05-15T16:22:57.428Z,29.47
2023-05-15T16:25:46.492Z,29.25
2023-05-15T16:28:40.425Z,29.14
2023-05-15T16:31:38.993Z,28.90
2023-05-15T16:34:44.247Z,28.88
2023-05-15T16:37:49.863Z,28.70
2023-05-15T16:40:55.667Z,28.45
2023-05-15T16:44:00.252Z,28.22
2023-05-15T16:47:07.201Z,28.00
2023-05-15T16:50:11.811Z,27.88
2023-05-15T16:53:16.919Z,27.63
2023-05-15T16:56:23.823Z,27.36
2023-05-15T16:59:29.098Z,27.19
2023-05-15T17:02:34.886Z,27.05
2023-05-15T17:05:40.854Z,26.51
2023-05-15T17:08:45.794Z,26.49
2023-05-15T17:11:44.347Z,26.37
2023-05-15T17:14:51.291Z,26.10
2023-05-15T17:17:56.662Z,26.01
2023-05-15T17:21:02.482Z,25.50
2023-05-15T17:24:07.774Z,25.64
2023-05-15T17:27:13.435Z,25.53
2023-05-15T17:30:12.090Z,25.44
2023-05-15T17:33:18.388Z,25.35
2023-05-15T17:36:24.062Z,25.15
2023-05-15T17:39:17.258Z,24.77
2023-05-15T17:42:22.120Z,24.84
2023-05-15T17:45:28.080Z,24.68
2023-05-15T17:48:27.781Z,24.52
2023-05-15T17:51:34.156Z,24.46
2023-05-15T17:54:39.886Z,24.34
2023-05-15T17:57:45.512Z,24.32
2023-05-15T18:00:50.880Z,24.22
2023-05-15T18:03:57.206Z,24.11
2023-05-15T18:07:02.628Z,24.01
2023-05-15T18:10:08.076Z,23.54
2023-05-15T18:13:14.374Z,23.52
2023-05-15T18:16:19.886Z,23.52
2023-05-15T18:19:25.506Z,23.42
2023-05-15T18:22:32.364Z,23.43
2023-05-15T18:25:38.164Z,23.33
2023-05-15T18:28:45.117Z,23.23
2023-05-15T18:31:49.814Z,23.13
2023-05-15T18:34:55.740Z,23.18
2023-05-15T18:38:02.505Z,23.01
2023-05-15T18:41:08.273Z,22.68
2023-05-15T18:44:14.299Z,22.45
2023-05-15T18:47:20.110Z,22.79
2023-05-15T18:50:26.369Z,22.65
2023-05-15T18:53:32.269Z,22.63
2023-05-15T18:56:31.747Z,22.31
2023-05-15T18:59:25.965Z,22.31
2023-05-15T19:02:30.862Z,22.25
2023-05-15T19:05:38.386Z,22.18
2023-05-15T19:08:43.957Z,22.04
2023-05-15T19:11:52.447Z,21.85
2023-05-15T19:14:58.731Z,21.92
2023-05-15T19:18:04.553Z,22.13
2023-05-15T19:21:12.234Z,22.18
2023-05-15T19:24:18.937Z,22.12
2023-05-15T19:27:25.674Z,22.09
2023-05-15T19:30:31.630Z,22.08
2023-05-15T19:33:36.902Z,21.93
2023-05-15T19:36:42.602Z,21.90
2023-05-15T19:39:49.015Z,21.65
2023-05-15T19:42:55.008Z,21.69
2023-05-15T19:46:02.011Z,21.48
2023-05-15T19:49:08.159Z,21.42
2023-05-15T19:52:14.639Z,21.19
2023-05-15T19:55:21.268Z,21.16
2023-05-15T19:58:26.820Z,21.29
2023-05-15T20:01:32.869Z,21.25
2023-05-15T20:04:39.464Z,21.15
2023-05-15T20:07:45.386Z,21.22
2023-05-15T20:10:51.769Z,21.23
2023-05-15T20:13:58.472Z,21.30
2023-05-15T20:17:03.979Z,21.20
2023-05-15T20:20:08.900Z,20.95
2023-05-15T20:23:15.597Z,20.90
2023-05-15T20:26:21.344Z,20.76
2023-05-15T20:29:28.495Z,20.67
2023-05-15T20:32:35.394Z,20.70
2023-05-15T20:35:40.510Z,20.71
2023-05-15T20:38:47.031Z,20.70
2023-05-15T20:41:52.917Z,20.74
2023-05-15T20:44:58.404Z,20.77
2023-05-15T20:48:05.588Z,20.74
2023-05-15T20:51:11.852Z,20.73
2023-05-15T20:54:17.088Z,20.62
2023-05-15T20:57:23.684Z,20.48
2023-05-15T21:00:31.245Z,20.45
2023-05-15T21:03:36.832Z,20.38
2023-05-15T21:06:43.338Z,20.42
2023-05-15T21:09:47.959Z,20.37
2023-05-15T21:12:54.308Z,20.22
2023-05-15T21:15:59.705Z,19.99
2023-05-15T21:19:07.719Z,20.05
2023-05-15T21:22:13.968Z,20.06
2023-05-15T21:25:19.414Z,20.15
2023-05-15T21:28:24.958Z,20.13
2023-05-15T21:31:30.557Z,20.17
2023-05-15T21:34:36.110Z,20.20
2023-05-15T21:37:42.244Z,19.96
2023-05-15T21:40:47.450Z,19.99
2023-05-15T21:43:53.162Z,19.90
2023-05-15T21:46:59.604Z,20.11
2023-05-15T21:50:05.437Z,20.19
2023-05-15T21:53:11.649Z,20.31
2023-05-15T21:56:17.451Z,20.40
2023-05-15T21:59:23.005Z,20.44
2023-05-15T22:02:29.760Z,20.50
2023-05-15T22:05:34.426Z,20.57
2023-05-15T22:08:40.249Z,20.61
2023-05-15T22:11:45.805Z,20.65
2023-05-15T22:14:58.850Z,20.86
2023-05-15T22:18:01.053Z,20.92
2023-05-15T22:21:06.349Z,20.74
2023-05-15T22:24:12.956Z,20.85
2023-05-15T22:27:18.446Z,20.64
2023-05-15T22:30:26.601Z,20.52
2023-05-15T22:33:34.396Z,20.51
2023-05-15T22:36:43.013Z,20.30
2023-05-15T22:39:49.108Z,20.13
2023-05-15T22:42:57.058Z,20.12
2023-05-15T22:46:01.751Z,20.13
2023-05-15T22:49:07.104Z,20.09
2023-05-15T22:52:13.626Z,20.13
2023-05-15T22:55:20.741Z,20.32
2023-05-15T22:58:25.733Z,20.31
2023-05-15T23:01:31.481Z,20.31
2023-05-15T23:04:38.310Z,20.26
2023-05-15T23:07:43.720Z,20.29
2023-05-15T23:10:49.639Z,20.31
2023-05-15T23:13:55.741Z,20.17
2023-05-15T23:17:00.830Z,20.21
2023-05-15T23:20:06.252Z,19.87
2023-05-15T23:23:12.852Z,19.77
2023-05-15T23:26:18.345Z,19.78
2023-05-15T23:29:23.967Z,19.88
2023-05-15T23:32:30.041Z,19.80
2023-05-15T23:35:36.317Z,19.92
2023-05-15T23:38:44.957Z,19.79
2023-05-15T23:41:50.513Z,19.74
2023-05-15T23:44:56.396Z,19.78
2023-05-15T23:48:03.139Z,19.78
2023-05-15T23:51:08.939Z,19.78
2023-05-15T23:54:14.120Z,19.70
2023-05-15T23:57:20.184Z,19.80
